Aérodrome :
LOGIN :

S'inscrire | Disclaimer

   EN    FR    IT 

 










Légende :    VFR   VFR Marginal   IFR   IFR Intensif   IFR Très Intensif
Visi : 
Plafond : 
>= 8 km
>= 3000ft
5 à 8 km
1000 à 3000 ft
1500m à 5 km
500 à 1000 ft
800 à 1500m
200 à 500 ft
< 800m
< 200 ft
Symboles :   Orages  Brouillard  Fortes neiges  Fortes précipitations  Vent > 20 kt
SIGMETs :   Divers  Orages  Givrage  Turbulence  Onde Orograph.  Cendres Volcan.







- Altitude de l'aérodrome : 876 ft
- Code IATA : MBX


LJMB - Maribor

DERNIER METAR :
  • 232300Z AUTO 00000KT 9999 NCD 15/12 Q1018

METARs EXPIRÉS :
  • 232230Z AUTO VRB01KT 9999 NCD 14/12 Q1018
  • 232200Z AUTO 35001KT 9999 NCD 15/13 Q1018
  • 232130Z AUTO 01001KT 9999 NCD 15/12 Q1018
  • 232100Z AUTO 00000KT 9999 NCD 16/13 Q1018
  • 232030Z AUTO VRB01KT 9999 NCD 17/13 Q1018

TAF TAF LJMB
Valide du 23 à 21h jusqu'au 24 à 21h UTC


232000Z 2321/2421 15004KT CAVOK
BECMG 2321/2322 36003KT
BECMG 2408/2410 17005KT FEW050
Pas de NOTAMs connus pour ce terrain.



MET'MAP, la Météo Aéronautique d'un coup d'oeil ! - Copyright ORBIFLY Décembre 2007 - Disclaimer

ORBIFLY MET'MAP TEAM :

Programmation & Développement : Alexandra Zaïnal
Conception & Développement : Baudouin d'Aumeries
Co-Programmation & Développement : Marc-Olivier Méhu
Soutien technique & logistique : Manuel Goepfert

Contact : metmap@orbifly.com




SOURCES & CREDITS :

   NOAA